Bellaire, MI

4:03 AM EDT on July 05, 2015 (GMT -0400)
Bellaire | | Change Station
CLOSE
Current Station
Personal Weather Station
Location: Bellaire, MI
Elevation: 748 ft
Nearby Weather Stations

Elev 748 ft 44.91 °N, 85.24 °W | Updated 3 minutes ago

Clear
Clear
56.0 °F
Feels Like 56.0 °F
N
0.0
Wind Variable Wind from SW
Gusts 0.0 mph

Today
High -- | Low -- °F
--% Chance of Precip.
Yesterday
High -- | Low -- °F
Precip. -- in
6:00 AM 9:30 PM
Waning Gibbous, 86% visible
Pressure 30.06 in
Visibility 5.0 miles
Clouds Clear
Dew Point 53 °F
Humidity 90%
Rainfall 0.00 in
Snow Depth Not available.
UV 0 out of 12
Pollen 4.40 out of 12
Air Quality Not available.
Flu Activity Not available.
METAR KACB 050754Z AUTO 00000KT 5SM BR CLR 11/10 A3006 RMK AO2 T01100104

More Conditions Fewer Conditions

Pressure 30.06 in
Visibility 5.0 miles
Clouds Clear
Dew Point 53 °F
Humidity 90%
Rainfall 0.00 in
Snow Depth Not available.
UV 0 out of 12
Pollen 4.40 out of 12
Air Quality Not available.
Flu Activity Not available.
METAR KACB 050754Z AUTO 00000KT 5SM BR CLR 11/10 A3006 RMK AO2 T01100104

More Conditions Fewer Conditions

Nowcast | as of 4:00 am EDT on July 5, 2015

At 5 am...mostly clear. Patchy fog. Temperature 56. Light winds. At 7 am...mostly clear. Patchy fog. Temperature 58. South winds 5 mph. At 9 am...mostly clear. Temperature 64. South winds 6 mph. At 11 am...mostly clear. Temperature 75. Southwest winds 7 mph.

×

10-Day Weather Forecast

×

Almanac

Astronomy

Jul. 05, 2015 Rise Set
Actual Time
Civil Twilight
Nautical Twilight
Astronomical Twilight
Moon
Length of Visible Light
Length of Day
Tomorrow will be .
, % of the Moon is Illuminated

Today's Extremes

State Highs State Lows

Community

WunderPhotos

Upload Photos

1,835,215 photos uploaded!

WunderBlogs® & News

Nearby

Air Quality

  Air Quality AQ Index Pollutant
Not available.

Snow Depth

Station Depth Elevation

Earthquake Activity

City Distance Mag. Time & Date
Minimum magnitude displayed is 2.5.

Coastal Water Temperatures

Place Temperature

Stations

Nearby Weather Stations

Station Location Temp. Windchill Dew Point Humidity Wind Precip. Elev Updated Type